Time;durP1;ratioP1;P1;durP2;ratioP2;P2;SDS_P1;SDS_P2;PMS_P1;PMS_P2;Temp;Humidity;BMP_temperature;BMP_pressure;BME280_temperature;BME280_humidity;BME280_pressure;Samples;Min_cycle;Max_cycle;Signal;HPM_P1;HPM_P2
2024/02/04 00:00:54;;;;;;;2.65;1.00;;;11.90;99.90;;;;;;5034574;28;20455;-65
2024/02/04 00:03:23;;;;;;;3.78;1.10;;;11.90;99.90;;;;;;5034873;28;20074;-65
2024/02/04 00:05:50;;;;;;;2.70;0.90;;;11.90;99.90;;;;;;5034276;28;20524;-65
2024/02/04 00:08:17;;;;;;;2.42;0.90;;;11.90;99.90;;;;;;5033871;28;20084;-63
2024/02/04 00:10:44;;;;;;;1.13;0.68;;;11.80;99.90;;;;;;5033915;28;20041;-66
2024/02/04 00:13:11;;;;;;;1.77;0.70;;;11.90;99.90;;;;;;5033890;28;20064;-65
2024/02/04 00:15:38;;;;;;;1.65;0.73;;;11.90;99.90;;;;;;5033697;28;20111;-65
2024/02/04 00:18:06;;;;;;;2.53;0.75;;;11.80;99.90;;;;;;5037726;28;20040;-65
2024/02/04 00:20:33;;;;;;;2.10;0.70;;;11.80;99.90;;;;;;5034155;28;20040;-66
2024/02/04 00:22:59;;;;;;;2.42;0.90;;;11.90;99.90;;;;;;5034183;28;20050;-65
2024/02/04 00:25:28;;;;;;;2.65;0.77;;;11.90;99.90;;;;;;5034082;28;20041;-64
2024/02/04 00:27:56;;;;;;;1.88;0.80;;;11.90;99.90;;;;;;5033805;28;20045;-64
2024/02/04 00:30:23;;;;;;;1.58;0.60;;;11.90;99.90;;;;;;5034212;28;20083;-66
2024/02/04 00:32:50;;;;;;;1.55;0.70;;;11.90;99.90;;;;;;5032514;28;20426;-64
2024/02/04 00:35:17;;;;;;;1.45;0.60;;;11.80;99.90;;;;;;5033809;28;20137;-64
2024/02/04 00:37:44;;;;;;;1.17;0.50;;;11.90;99.90;;;;;;5033828;28;20064;-66
2024/02/04 00:40:10;;;;;;;2.05;0.55;;;11.90;99.90;;;;;;5033691;28;20112;-66
2024/02/04 00:42:37;;;;;;;1.60;0.50;;;11.90;99.90;;;;;;5041608;28;20033;-64
2024/02/04 00:45:04;;;;;;;2.10;0.47;;;11.90;99.90;;;;;;5053247;28;20037;-66
2024/02/04 00:47:31;;;;;;;1.75;0.60;;;11.90;99.90;;;;;;5052749;28;20059;-64
2024/02/04 00:49:58;;;;;;;1.73;0.70;;;11.80;99.90;;;;;;5035063;28;20107;-64
2024/02/04 00:52:24;;;;;;;1.15;0.50;;;11.80;99.90;;;;;;5033676;28;20041;-66
2024/02/04 00:54:51;;;;;;;1.10;0.40;;;11.80;99.90;;;;;;5032476;28;20049;-64
2024/02/04 00:57:18;;;;;;;1.98;0.45;;;11.90;99.90;;;;;;5033760;28;20541;-64
2024/02/04 00:59:45;;;;;;;1.27;0.55;;;11.90;99.90;;;;;;5032524;28;20489;-64
2024/02/04 01:02:12;;;;;;;1.13;0.50;;;11.80;99.90;;;;;;5032577;28;20051;-64
2024/02/04 01:04:39;;;;;;;1.27;0.50;;;11.80;99.90;;;;;;5033727;28;20129;-64
2024/02/04 01:07:06;;;;;;;0.85;0.40;;;11.80;99.90;;;;;;5032192;28;20049;-65
2024/02/04 01:09:33;;;;;;;2.35;0.50;;;11.80;99.90;;;;;;5033572;28;20052;-65
2024/02/04 01:11:59;;;;;;;1.35;0.45;;;11.80;99.90;;;;;;5033595;28;20125;-65
2024/02/04 01:14:26;;;;;;;1.85;0.60;;;11.80;99.90;;;;;;5032109;28;20064;-66
2024/02/04 01:16:53;;;;;;;1.55;0.50;;;11.80;99.90;;;;;;5031776;28;20038;-65
2024/02/04 01:19:20;;;;;;;1.25;0.57;;;11.80;99.90;;;;;;5031851;28;20049;-66
2024/02/04 01:21:47;;;;;;;1.70;0.40;;;11.80;99.90;;;;;;5033128;28;20038;-65
2024/02/04 01:24:14;;;;;;;1.60;0.55;;;11.80;99.90;;;;;;5031830;28;20144;-65
2024/02/04 01:26:40;;;;;;;1.25;0.60;;;11.80;99.90;;;;;;5031876;28;20052;-65
2024/02/04 01:29:07;;;;;;;3.50;0.60;;;11.70;99.90;;;;;;5033685;28;20574;-66
2024/02/04 01:31:34;;;;;;;1.10;0.50;;;11.70;99.90;;;;;;5033311;28;20387;-65
2024/02/04 01:34:01;;;;;;;1.67;0.60;;;11.70;99.90;;;;;;5033179;28;20041;-63
2024/02/04 01:36:28;;;;;;;1.30;0.55;;;11.70;99.90;;;;;;5033080;28;20087;-62
2024/02/04 01:38:55;;;;;;;1.65;0.75;;;11.70;99.90;;;;;;5031904;28;20479;-62
2024/02/04 01:41:21;;;;;;;2.72;0.80;;;11.70;99.90;;;;;;5033332;28;20068;-63
2024/02/04 01:43:48;;;;;;;2.20;0.55;;;11.80;99.90;;;;;;5032141;28;20136;-63
2024/02/04 01:46:16;;;;;;;2.00;0.70;;;11.80;99.90;;;;;;5031802;28;20069;-62
2024/02/04 01:48:43;;;;;;;2.50;0.80;;;11.70;99.90;;;;;;5032040;28;20052;-62
2024/02/04 01:51:09;;;;;;;1.60;0.70;;;11.70;99.90;;;;;;5032765;28;20040;-62
2024/02/04 01:53:36;;;;;;;1.88;0.80;;;11.70;99.90;;;;;;5032936;28;20038;-62
2024/02/04 01:56:03;;;;;;;2.13;0.82;;;11.70;99.90;;;;;;5032148;28;20038;-62
2024/02/04 01:58:30;;;;;;;2.67;0.90;;;11.70;99.90;;;;;;5033601;28;20049;-63
2024/02/04 02:00:57;;;;;;;3.00;0.80;;;11.80;99.90;;;;;;5035504;28;20064;-62
2024/02/04 02:03:24;;;;;;;1.55;0.80;;;11.80;99.90;;;;;;5035374;28;20072;-65
2024/02/04 02:05:51;;;;;;;2.03;0.88;;;11.80;99.90;;;;;;5036348;28;20045;-65
2024/02/04 02:08:19;;;;;;;2.33;0.80;;;11.80;99.90;;;;;;5036283;28;20037;-66
2024/02/04 02:10:46;;;;;;;1.58;0.70;;;11.70;99.90;;;;;;5035182;28;20037;-66
2024/02/04 02:13:13;;;;;;;1.75;0.70;;;11.70;99.90;;;;;;5035280;28;20053;-64
2024/02/04 02:15:40;;;;;;;2.25;0.55;;;11.70;99.90;;;;;;5035026;28;20436;-66
2024/02/04 02:18:07;;;;;;;1.30;0.60;;;11.70;99.90;;;;;;5036511;28;20044;-65
2024/02/04 02:20:34;;;;;;;1.55;0.60;;;11.70;99.90;;;;;;5035187;28;20041;-66
2024/02/04 02:23:01;;;;;;;2.63;0.80;;;11.70;99.90;;;;;;5035967;28;20041;-64
2024/02/04 02:25:28;;;;;;;2.70;0.77;;;11.70;99.90;;;;;;5036151;28;20038;-66
2024/02/04 02:27:54;;;;;;;1.77;0.68;;;11.70;99.90;;;;;;5036193;28;20125;-64
2024/02/04 02:30:21;;;;;;;1.25;0.60;;;11.70;99.90;;;;;;5035288;28;20139;-66
2024/02/04 02:32:48;;;;;;;1.45;0.55;;;11.70;99.90;;;;;;5035978;28;20130;-66
2024/02/04 02:35:15;;;;;;;1.33;0.70;;;11.70;99.90;;;;;;5035915;28;20037;-64
2024/02/04 02:37:42;;;;;;;2.22;0.70;;;11.60;99.90;;;;;;5036211;28;20037;-65
2024/02/04 02:40:10;;;;;;;1.05;0.47;;;11.70;99.90;;;;;;5034901;28;20045;-64
2024/02/04 02:42:37;;;;;;;1.73;0.70;;;11.60;99.90;;;;;;5035995;28;20054;-64
2024/02/04 02:45:04;;;;;;;1.90;0.50;;;11.60;99.90;;;;;;5035690;28;20046;-66
2024/02/04 02:47:31;;;;;;;1.40;0.55;;;11.60;99.90;;;;;;5035584;28;20151;-64
2024/02/04 02:49:57;;;;;;;1.30;0.40;;;11.60;99.90;;;;;;5034364;28;20482;-66
2024/02/04 02:52:24;;;;;;;1.83;0.50;;;11.60;99.90;;;;;;5035564;28;20490;-66
2024/02/04 02:54:51;;;;;;;1.15;0.40;;;11.60;99.90;;;;;;5035431;28;20052;-67
2024/02/04 02:57:18;;;;;;;1.00;0.40;;;11.60;99.90;;;;;;5034465;28;20474;-65
2024/02/04 02:59:45;;;;;;;2.83;0.60;;;11.60;99.90;;;;;;5034674;28;20466;-66
2024/02/04 03:02:13;;;;;;;0.65;0.35;;;11.60;99.90;;;;;;5035656;28;20043;-64
2024/02/04 03:04:40;;;;;;;0.80;0.40;;;11.50;99.90;;;;;;5035578;28;20047;-66
2024/02/04 03:07:07;;;;;;;1.20;0.63;;;11.50;99.90;;;;;;5034503;28;20536;-65
2024/02/04 03:09:34;;;;;;;1.00;0.50;;;11.50;99.90;;;;;;5034224;28;20057;-64
2024/02/04 03:12:01;;;;;;;1.20;0.40;;;11.40;99.90;;;;;;5034116;28;20221;-66
2024/02/04 03:14:28;;;;;;;1.23;0.55;;;11.50;99.90;;;;;;5033961;28;20151;-65
2024/02/04 03:16:55;;;;;;;0.95;0.43;;;11.40;99.90;;;;;;5034224;28;20524;-64
2024/02/04 03:19:22;;;;;;;1.85;0.50;;;11.40;99.90;;;;;;5033771;28;20033;-64
2024/02/04 03:21:49;;;;;;;1.20;0.60;;;11.40;99.90;;;;;;5033873;28;20061;-66
2024/02/04 03:24:16;;;;;;;0.75;0.40;;;11.40;99.90;;;;;;5033654;28;20041;-64
2024/02/04 03:26:43;;;;;;;2.20;0.50;;;11.40;99.90;;;;;;5034071;28;20550;-66
2024/02/04 03:29:10;;;;;;;1.05;0.40;;;11.40;99.90;;;;;;5033946;28;20038;-64
2024/02/04 03:31:37;;;;;;;1.58;0.50;;;11.40;99.90;;;;;;5033939;28;20041;-66
2024/02/04 03:34:03;;;;;;;1.42;0.50;;;11.40;99.90;;;;;;5034774;28;20495;-66
2024/02/04 03:36:31;;;;;;;1.38;0.50;;;11.40;99.90;;;;;;5033842;28;20045;-66
2024/02/04 03:38:58;;;;;;;1.38;0.50;;;11.40;99.90;;;;;;5033801;28;20041;-64
2024/02/04 03:41:24;;;;;;;1.00;0.40;;;11.40;99.90;;;;;;5034699;28;20116;-65
2024/02/04 03:43:52;;;;;;;1.42;0.40;;;11.30;99.90;;;;;;5034903;28;20045;-64
2024/02/04 03:46:19;;;;;;;3.33;0.55;;;11.30;99.90;;;;;;5035011;28;20060;-66
2024/02/04 03:48:46;;;;;;;0.80;0.40;;;11.30;99.90;;;;;;5033715;28;20064;-64
2024/02/04 03:51:13;;;;;;;1.08;0.40;;;11.20;99.90;;;;;;5033526;28;20041;-66
2024/02/04 03:53:40;;;;;;;1.02;0.30;;;11.30;99.90;;;;;;5033227;28;20065;-64
2024/02/04 03:56:07;;;;;;;1.05;0.45;;;11.20;99.90;;;;;;5034655;28;20065;-65
2024/02/04 03:58:33;;;;;;;1.30;0.40;;;11.20;99.90;;;;;;5033507;28;20044;-64
2024/02/04 04:01:00;;;;;;;0.88;0.32;;;11.20;99.90;;;;;;5034875;28;20397;-66
2024/02/04 04:03:27;;;;;;;1.15;0.40;;;11.20;99.90;;;;;;5033485;28;20462;-64
2024/02/04 04:05:54;;;;;;;0.73;0.40;;;11.20;99.90;;;;;;5034496;28;20100;-64
2024/02/04 04:08:21;;;;;;;0.95;0.35;;;11.20;99.90;;;;;;5033238;28;20049;-66
2024/02/04 04:10:47;;;;;;;1.23;0.40;;;11.20;99.90;;;;;;5034252;28;20486;-67
2024/02/04 04:13:14;;;;;;;0.65;0.32;;;11.20;99.90;;;;;;5034261;28;20052;-66
2024/02/04 04:15:42;;;;;;;0.65;0.35;;;11.20;99.90;;;;;;5034034;28;20048;-64
2024/02/04 04:18:11;;;;;;;0.80;0.38;;;11.30;99.90;;;;;;5034405;28;20048;-64
2024/02/04 04:20:38;;;;;;;0.73;0.30;;;11.30;99.90;;;;;;5034113;28;20125;-64
2024/02/04 04:23:05;;;;;;;0.47;0.20;;;11.30;99.90;;;;;;5033203;28;20042;-66
2024/02/04 04:25:33;;;;;;;2.97;0.40;;;11.40;99.90;;;;;;5034515;28;20038;-66
2024/02/04 04:27:59;;;;;;;1.13;0.30;;;11.40;99.90;;;;;;5033905;28;20059;-64
2024/02/04 04:30:26;;;;;;;0.63;0.20;;;11.40;99.90;;;;;;5034056;28;20132;-64
2024/02/04 04:32:53;;;;;;;1.70;0.43;;;11.40;99.90;;;;;;5034002;28;20471;-64
2024/02/04 04:35:20;;;;;;;1.80;0.43;;;11.40;99.90;;;;;;5034077;28;20061;-66
2024/02/04 04:37:47;;;;;;;1.27;0.35;;;11.50;99.90;;;;;;5034062;28;20380;-64
2024/02/04 04:40:14;;;;;;;0.98;0.30;;;11.50;99.90;;;;;;5033757;28;20069;-65
2024/02/04 04:42:41;;;;;;;0.30;0.13;;;11.50;99.90;;;;;;5033806;28;20430;-64
2024/02/04 04:45:08;;;;;;;0.85;0.30;;;11.50;99.90;;;;;;5033574;28;20042;-64
2024/02/04 04:47:34;;;;;;;1.17;0.40;;;11.50;99.90;;;;;;5033759;28;20053;-64
2024/02/04 04:50:01;;;;;;;0.90;0.30;;;11.50;99.90;;;;;;5033902;28;20076;-66
2024/02/04 04:52:28;;;;;;;1.08;0.40;;;11.50;99.90;;;;;;5033822;28;20064;-64
2024/02/04 04:54:56;;;;;;;1.42;0.50;;;11.50;99.90;;;;;;5033787;28;20052;-64
2024/02/04 04:57:23;;;;;;;0.95;0.30;;;11.50;99.90;;;;;;5033887;28;20115;-66
2024/02/04 04:59:50;;;;;;;0.50;0.20;;;11.50;99.90;;;;;;5034064;28;20045;-66
2024/02/04 05:02:16;;;;;;;0.93;0.30;;;11.40;99.90;;;;;;5033876;28;20474;-66
2024/02/04 05:04:44;;;;;;;0.70;0.20;;;11.50;99.90;;;;;;5033429;28;20045;-66
2024/02/04 05:07:11;;;;;;;1.60;0.32;;;11.50;99.90;;;;;;5033274;28;20510;-64
2024/02/04 05:09:38;;;;;;;0.73;0.30;;;11.40;99.90;;;;;;5033397;28;20044;-64
2024/02/04 05:12:05;;;;;;;1.60;0.40;;;11.50;99.90;;;;;;5033294;28;20418;-66
2024/02/04 05:14:32;;;;;;;0.82;0.30;;;11.50;99.90;;;;;;5032737;28;20136;-66
2024/02/04 05:16:59;;;;;;;0.60;0.20;;;11.50;99.90;;;;;;5033256;28;20041;-66
2024/02/04 05:19:25;;;;;;;0.60;0.22;;;11.50;99.90;;;;;;5033426;28;20558;-66
2024/02/04 05:21:52;;;;;;;0.85;0.30;;;11.50;99.90;;;;;;5033112;28;20103;-64
2024/02/04 05:24:19;;;;;;;0.68;0.20;;;11.50;99.90;;;;;;5032988;28;20048;-64
2024/02/04 05:26:46;;;;;;;0.77;0.20;;;11.50;99.90;;;;;;5033111;28;20033;-64
2024/02/04 05:29:13;;;;;;;1.75;0.25;;;11.50;99.90;;;;;;5033559;28;20041;-66
2024/02/04 05:31:39;;;;;;;0.85;0.30;;;11.60;99.90;;;;;;5031704;28;20067;-62
2024/02/04 05:34:09;;;;;;;1.30;0.38;;;11.50;99.90;;;;;;5036002;28;20042;-62
2024/02/04 05:36:36;;;;;;;1.13;0.30;;;11.60;99.90;;;;;;5037282;28;20045;-62
2024/02/04 05:39:03;;;;;;;0.50;0.25;;;11.60;99.90;;;;;;5037111;28;20029;-62
2024/02/04 05:41:30;;;;;;;0.20;0.20;;;11.60;99.90;;;;;;5036938;28;20064;-62
2024/02/04 05:43:57;;;;;;;1.20;0.30;;;11.60;99.90;;;;;;5037415;28;20060;-62
2024/02/04 05:46:23;;;;;;;0.50;0.20;;;11.60;99.90;;;;;;5036670;28;20042;-62
2024/02/04 05:48:50;;;;;;;0.20;0.10;;;11.60;99.90;;;;;;5036818;28;20102;-64
2024/02/04 05:51:17;;;;;;;0.82;0.30;;;11.60;99.90;;;;;;5036804;28;20042;-66
2024/02/04 05:53:44;;;;;;;0.45;0.30;;;11.60;99.90;;;;;;5036880;28;20038;-66
2024/02/04 05:56:11;;;;;;;0.40;0.10;;;11.60;99.90;;;;;;5036998;28;20041;-64
2024/02/04 05:58:37;;;;;;;0.55;0.20;;;11.60;99.90;;;;;;5036793;28;20033;-64
2024/02/04 06:01:04;;;;;;;1.08;0.20;;;11.60;99.90;;;;;;5036915;28;20124;-64
2024/02/04 06:03:31;;;;;;;1.23;0.20;;;11.60;99.90;;;;;;5035612;28;20479;-66
2024/02/04 06:05:58;;;;;;;1.02;0.20;;;11.60;99.90;;;;;;5036746;28;20038;-62
2024/02/04 06:08:25;;;;;;;0.85;0.20;;;11.60;99.90;;;;;;5036902;28;20111;-62
2024/02/04 06:10:52;;;;;;;1.02;0.10;;;11.60;99.90;;;;;;5036327;28;20048;-64
2024/02/04 06:13:18;;;;;;;0.40;0.20;;;11.60;99.90;;;;;;5036845;28;20042;-64
2024/02/04 06:15:45;;;;;;;0.60;0.20;;;11.60;99.90;;;;;;5036313;28;20037;-65
2024/02/04 06:18:12;;;;;;;0.35;0.20;;;11.60;99.90;;;;;;5036665;28;20048;-63
2024/02/04 06:20:39;;;;;;;0.73;0.28;;;11.60;99.90;;;;;;5036778;28;20390;-62
2024/02/04 06:23:06;;;;;;;0.73;0.20;;;11.60;99.90;;;;;;5036543;28;20047;-62
2024/02/04 06:25:32;;;;;;;0.32;0.20;;;11.60;99.90;;;;;;5018602;28;20048;-62
2024/02/04 06:27:59;;;;;;;1.60;0.30;;;11.60;99.90;;;;;;5036288;28;20072;-62
2024/02/04 06:30:26;;;;;;;0.88;0.30;;;11.60;99.90;;;;;;5036414;28;20508;-62
2024/02/04 06:32:53;;;;;;;1.17;0.40;;;11.60;99.90;;;;;;5036315;28;20061;-62
2024/02/04 06:35:20;;;;;;;1.10;0.30;;;11.60;99.90;;;;;;5035993;28;20136;-62
2024/02/04 06:37:47;;;;;;;1.67;0.20;;;11.60;99.90;;;;;;5035985;28;20037;-62
2024/02/04 06:40:14;;;;;;;1.17;0.30;;;11.60;99.90;;;;;;5036141;28;20045;-62
2024/02/04 06:42:41;;;;;;;1.08;0.28;;;11.60;99.90;;;;;;5036257;28;20064;-62
2024/02/04 06:45:07;;;;;;;1.60;0.30;;;11.60;99.90;;;;;;5035670;28;20049;-62
2024/02/04 06:47:34;;;;;;;0.43;0.20;;;11.60;99.90;;;;;;5034622;28;20045;-62
2024/02/04 06:50:05;;;;;;;0.65;0.30;;;11.60;99.90;;;;;;5036019;28;20549;-64
2024/02/04 06:52:32;;;;;;;0.40;0.20;;;11.60;99.90;;;;;;5035622;28;20065;-64
2024/02/04 06:54:58;;;;;;;0.43;0.20;;;11.70;99.90;;;;;;5035902;28;20471;-64
2024/02/04 06:57:25;;;;;;;0.55;0.30;;;11.70;99.90;;;;;;5035435;28;20034;-65
2024/02/04 06:59:52;;;;;;;0.80;0.28;;;11.70;99.90;;;;;;5035758;28;20033;-62
2024/02/04 07:02:19;;;;;;;0.95;0.30;;;11.70;99.90;;;;;;5035712;28;20048;-62
2024/02/04 07:04:46;;;;;;;1.60;0.20;;;11.70;99.90;;;;;;5035574;28;20108;-62
2024/02/04 07:07:13;;;;;;;1.00;0.32;;;11.70;99.90;;;;;;5035801;28;20047;-62
2024/02/04 07:09:39;;;;;;;0.60;0.25;;;11.70;99.90;;;;;;5035594;28;20104;-62
2024/02/04 07:12:06;;;;;;;0.22;0.20;;;11.70;99.90;;;;;;5035734;28;20073;-62
2024/02/04 07:14:33;;;;;;;0.70;0.30;;;11.70;99.90;;;;;;5035060;28;20045;-62
2024/02/04 07:17:00;;;;;;;1.30;0.30;;;11.70;99.90;;;;;;5035407;28;20481;-62
2024/02/04 07:19:27;;;;;;;1.48;0.28;;;11.70;99.90;;;;;;5035462;28;20485;-62
2024/02/04 07:21:54;;;;;;;0.60;0.20;;;11.70;99.90;;;;;;5035203;28;20490;-62
2024/02/04 07:24:21;;;;;;;0.60;0.30;;;11.70;99.90;;;;;;5035205;28;20056;-62
2024/02/04 07:26:48;;;;;;;0.93;0.30;;;11.70;99.90;;;;;;5035142;28;20049;-62
2024/02/04 07:29:14;;;;;;;0.30;0.20;;;11.70;99.90;;;;;;5035342;28;20038;-62
2024/02/04 07:31:41;;;;;;;0.65;0.30;;;11.70;99.90;;;;;;5034859;28;20041;-62
2024/02/04 07:34:08;;;;;;;0.63;0.20;;;11.70;99.90;;;;;;5033865;28;20045;-62
2024/02/04 07:36:35;;;;;;;1.00;0.30;;;11.70;99.90;;;;;;5033616;28;20486;-63
2024/02/04 07:39:04;;;;;;;1.08;0.30;;;11.70;99.90;;;;;;5035014;28;20056;-64
2024/02/04 07:41:31;;;;;;;1.08;0.45;;;11.80;99.90;;;;;;5035303;28;20038;-64
2024/02/04 07:43:58;;;;;;;0.73;0.20;;;11.80;99.90;;;;;;5034984;28;20074;-64
2024/02/04 07:46:25;;;;;;;0.70;0.30;;;11.80;99.90;;;;;;5034730;28;20041;-62
2024/02/04 07:48:51;;;;;;;0.88;0.30;;;11.80;99.90;;;;;;5034680;28;20049;-62
2024/02/04 07:51:20;;;;;;;0.95;0.20;;;11.80;99.90;;;;;;5034745;28;20037;-62
2024/02/04 07:53:46;;;;;;;1.05;0.20;;;11.80;99.90;;;;;;5034805;28;20499;-62
2024/02/04 07:56:13;;;;;;;1.67;0.30;;;11.80;99.90;;;;;;5033849;28;20124;-62
2024/02/04 07:58:40;;;;;;;0.55;0.20;;;11.80;99.90;;;;;;5033161;28;20483;-62
2024/02/04 08:01:07;;;;;;;1.08;0.32;;;11.90;99.90;;;;;;5034619;28;20052;-62
2024/02/04 08:03:34;;;;;;;0.45;0.20;;;11.90;99.90;;;;;;5034163;28;20102;-62
2024/02/04 08:06:01;;;;;;;0.80;0.28;;;11.90;99.90;;;;;;5034548;28;20038;-62
2024/02/04 08:08:28;;;;;;;0.77;0.20;;;11.90;99.90;;;;;;5034418;28;20048;-62
2024/02/04 08:10:55;;;;;;;0.88;0.20;;;11.90;99.90;;;;;;5034661;28;20440;-62
2024/02/04 08:13:25;;;;;;;1.92;0.30;;;11.90;99.90;;;;;;5034151;28;20498;-63
2024/02/04 08:15:52;;;;;;;0.80;0.20;;;11.90;99.90;;;;;;5034065;28;20068;-62
2024/02/04 08:18:18;;;;;;;0.65;0.30;;;11.90;99.90;;;;;;5034104;28;20129;-62
2024/02/04 08:20:45;;;;;;;0.60;0.30;;;12.00;99.90;;;;;;5034269;28;20434;-63
2024/02/04 08:23:12;;;;;;;0.43;0.20;;;12.00;99.90;;;;;;5034239;28;20069;-62
2024/02/04 08:25:39;;;;;;;1.20;0.40;;;11.90;99.90;;;;;;5033893;28;20042;-63
2024/02/04 08:28:06;;;;;;;1.65;0.40;;;12.00;99.90;;;;;;5034313;28;20091;-62
2024/02/04 08:30:33;;;;;;;1.75;0.40;;;11.90;99.90;;;;;;5034026;28;20545;-62
2024/02/04 08:32:59;;;;;;;1.83;0.38;;;11.90;99.90;;;;;;5033803;28;20045;-62
2024/02/04 08:35:26;;;;;;;0.88;0.40;;;11.90;99.90;;;;;;5032665;28;20103;-62
2024/02/04 08:37:53;;;;;;;0.50;0.28;;;11.90;99.90;;;;;;5034189;28;20120;-63
2024/02/04 08:40:20;;;;;;;1.10;0.38;;;11.90;99.90;;;;;;5032868;28;20041;-63
2024/02/04 08:42:47;;;;;;;1.80;0.55;;;11.90;99.90;;;;;;5033914;28;20437;-62
2024/02/04 08:45:14;;;;;;;0.90;0.40;;;11.90;99.90;;;;;;5033600;28;20108;-65
2024/02/04 08:47:41;;;;;;;1.27;0.40;;;11.90;99.90;;;;;;5032737;28;20053;-65
2024/02/04 08:50:07;;;;;;;0.90;0.40;;;11.90;99.90;;;;;;5033684;28;20056;-65
2024/02/04 08:52:34;;;;;;;3.67;0.65;;;11.90;99.90;;;;;;5033409;28;20065;-65
2024/02/04 08:55:03;;;;;;;1.05;0.40;;;11.90;99.90;;;;;;5033558;28;20041;-66
2024/02/04 08:57:30;;;;;;;1.70;0.55;;;11.90;99.90;;;;;;5034163;28;20458;-65
2024/02/04 08:59:57;;;;;;;1.48;0.45;;;12.00;99.90;;;;;;5033772;28;20129;-65
2024/02/04 09:02:24;;;;;;;2.08;0.65;;;12.00;99.90;;;;;;5033915;28;20037;-65
2024/02/04 09:04:51;;;;;;;2.22;0.50;;;12.00;99.90;;;;;;5033305;28;20045;-65
2024/02/04 09:07:18;;;;;;;1.75;0.30;;;12.10;99.90;;;;;;5030148;28;20072;-65
2024/02/04 09:09:45;;;;;;;0.77;0.30;;;12.10;99.90;;;;;;5031011;28;20041;-65
2024/02/04 09:12:11;;;;;;;1.70;0.50;;;12.10;99.90;;;;;;5033243;28;20544;-64
2024/02/04 09:14:38;;;;;;;1.50;0.50;;;12.10;99.90;;;;;;5033484;28;20064;-65
2024/02/04 09:17:06;;;;;;;1.58;0.63;;;12.10;99.90;;;;;;5033084;28;20100;-65
2024/02/04 09:19:33;;;;;;;1.58;0.50;;;12.10;99.90;;;;;;5031942;28;20092;-66
2024/02/04 09:22:02;;;;;;;1.50;0.38;;;12.10;99.90;;;;;;5033396;28;20056;-64
2024/02/04 09:24:29;;;;;;;2.20;0.40;;;12.20;99.90;;;;;;5033396;28;20053;-65
2024/02/04 09:26:56;;;;;;;3.58;0.50;;;12.20;99.90;;;;;;5033635;28;20033;-65
2024/02/04 09:29:23;;;;;;;2.35;0.60;;;12.20;99.90;;;;;;5033326;28;20128;-66
2024/02/04 09:31:51;;;;;;;1.80;0.50;;;12.20;99.90;;;;;;5033486;28;20379;-66
2024/02/04 09:34:18;;;;;;;2.65;0.60;;;12.30;99.90;;;;;;5032902;28;20124;-65
2024/02/04 09:36:47;;;;;;;2.83;0.70;;;12.30;99.90;;;;;;5033287;28;20037;-64
2024/02/04 09:39:15;;;;;;;2.22;0.52;;;12.30;99.90;;;;;;5033050;28;20041;-64
2024/02/04 09:41:41;;;;;;;1.63;0.40;;;12.30;99.90;;;;;;5033410;28;20044;-64
2024/02/04 09:44:08;;;;;;;1.65;0.45;;;12.30;99.90;;;;;;5033169;28;20044;-65
2024/02/04 09:46:35;;;;;;;2.80;0.50;;;12.30;99.90;;;;;;5031947;28;20104;-65
2024/02/04 09:49:02;;;;;;;2.22;0.50;;;12.30;99.90;;;;;;5032580;28;20103;-64
2024/02/04 09:51:30;;;;;;;1.70;0.45;;;12.40;99.90;;;;;;5027257;28;20045;-65
2024/02/04 09:53:57;;;;;;;2.63;0.77;;;12.30;99.90;;;;;;5031959;28;20048;-64
2024/02/04 09:56:23;;;;;;;2.17;0.52;;;12.40;99.90;;;;;;5029141;28;20037;-63
2024/02/04 09:58:52;;;;;;;1.95;0.50;;;12.40;99.90;;;;;;5045780;28;20041;-63
2024/02/04 10:01:20;;;;;;;1.85;0.60;;;12.40;99.90;;;;;;5052996;28;20116;-63
2024/02/04 10:03:47;;;;;;;1.02;0.40;;;12.40;99.90;;;;;;5052685;28;20048;-63
2024/02/04 10:06:14;;;;;;;2.00;0.50;;;12.50;99.90;;;;;;5052621;28;20069;-64
2024/02/04 10:08:41;;;;;;;1.92;0.40;;;12.50;99.90;;;;;;5051606;28;20067;-63
2024/02/04 10:11:08;;;;;;;1.63;0.50;;;12.50;99.90;;;;;;5052656;28;20056;-63
2024/02/04 10:13:35;;;;;;;1.52;0.50;;;12.50;99.90;;;;;;5043011;28;20038;-63
2024/02/04 10:16:02;;;;;;;3.00;0.52;;;12.60;99.90;;;;;;5031977;28;20052;-63
2024/02/04 10:18:29;;;;;;;1.15;0.50;;;12.60;99.90;;;;;;5033343;28;20037;-63
2024/02/04 10:20:56;;;;;;;2.55;0.40;;;12.70;99.90;;;;;;5035639;28;20037;-63
2024/02/04 10:23:23;;;;;;;2.13;0.50;;;12.70;99.90;;;;;;5034598;28;20053;-62
2024/02/04 10:25:49;;;;;;;2.25;0.52;;;12.70;99.90;;;;;;5034497;28;20245;-63
2024/02/04 10:28:16;;;;;;;2.10;0.60;;;12.70;99.90;;;;;;5034980;28;20092;-64
2024/02/04 10:30:43;;;;;;;2.08;0.85;;;12.70;99.90;;;;;;5036143;28;20069;-64
2024/02/04 10:33:10;;;;;;;2.58;0.60;;;12.80;99.90;;;;;;5034951;28;20155;-64
2024/02/04 10:35:37;;;;;;;2.72;0.50;;;12.80;99.90;;;;;;5035097;28;20038;-64
2024/02/04 10:38:04;;;;;;;2.00;0.60;;;12.80;99.90;;;;;;5035026;28;20534;-64
2024/02/04 10:40:31;;;;;;;2.35;0.80;;;12.90;99.90;;;;;;5032850;28;20041;-64
2024/02/04 10:42:57;;;;;;;4.68;0.70;;;12.90;99.90;;;;;;5035272;28;20080;-65
2024/02/04 10:45:24;;;;;;;2.05;0.50;;;12.90;99.90;;;;;;5034384;28;20038;-65
2024/02/04 10:47:51;;;;;;;1.58;0.50;;;12.90;99.90;;;;;;5035891;28;20079;-65
2024/02/04 10:50:18;;;;;;;2.83;0.60;;;13.00;99.90;;;;;;5035845;28;20478;-64
2024/02/04 10:52:45;;;;;;;1.65;0.50;;;13.00;99.90;;;;;;5034965;28;20107;-64
2024/02/04 10:55:12;;;;;;;3.72;0.52;;;13.00;99.90;;;;;;5035780;28;20076;-65
2024/02/04 10:57:39;;;;;;;4.15;0.70;;;13.10;99.90;;;;;;5035986;28;20092;-64
2024/02/04 11:00:11;;;;;;;2.25;0.60;;;13.20;99.90;;;;;;5035691;28;20038;-64
2024/02/04 11:02:39;;;;;;;1.80;0.47;;;13.20;99.90;;;;;;5035826;28;20088;-64
2024/02/04 11:05:05;;;;;;;1.92;0.52;;;13.30;99.90;;;;;;5036157;28;20064;-65
2024/02/04 11:07:33;;;;;;;2.28;0.60;;;13.20;99.90;;;;;;5035632;28;20471;-64
2024/02/04 11:10:00;;;;;;;1.73;0.60;;;13.20;99.90;;;;;;5035711;28;20068;-65
2024/02/04 11:12:27;;;;;;;1.63;0.52;;;13.30;99.90;;;;;;5034639;28;20053;-64
2024/02/04 11:14:54;;;;;;;3.85;0.50;;;13.30;99.90;;;;;;5034047;28;20068;-64
2024/02/04 11:17:21;;;;;;;2.83;0.65;;;13.40;99.90;;;;;;5034262;28;20045;-64
2024/02/04 11:19:48;;;;;;;1.48;0.50;;;13.40;99.90;;;;;;5035247;28;20463;-64
2024/02/04 11:22:15;;;;;;;2.55;0.60;;;13.40;99.90;;;;;;5035382;28;20067;-63
2024/02/04 11:24:42;;;;;;;1.30;0.47;;;13.50;99.90;;;;;;5033940;28;20485;-64
2024/02/04 11:27:09;;;;;;;1.90;0.57;;;13.40;99.90;;;;;;5035044;28;20038;-63
2024/02/04 11:29:35;;;;;;;2.72;0.50;;;13.40;99.90;;;;;;5034845;28;20045;-64
2024/02/04 11:32:02;;;;;;;1.23;0.40;;;13.40;99.90;;;;;;5031910;28;20088;-64
2024/02/04 11:34:29;;;;;;;2.35;0.50;;;13.40;99.90;;;;;;5033818;28;20433;-63
2024/02/04 11:36:58;;;;;;;2.10;0.43;;;13.40;99.90;;;;;;5035050;28;20111;-64
2024/02/04 11:39:25;;;;;;;3.50;0.60;;;13.40;99.90;;;;;;5034999;28;20128;-64
2024/02/04 11:41:52;;;;;;;1.80;0.50;;;13.50;99.90;;;;;;5034666;28;20073;-64
2024/02/04 11:44:19;;;;;;;1.35;0.40;;;13.50;99.90;;;;;;5034330;28;20033;-65
2024/02/04 11:46:46;;;;;;;2.05;0.57;;;13.60;99.90;;;;;;5034651;28;20069;-64
2024/02/04 11:49:13;;;;;;;2.40;0.50;;;13.70;99.90;;;;;;5034612;28;20474;-63
2024/02/04 11:51:41;;;;;;;4.03;0.60;;;13.80;99.90;;;;;;5034781;28;20129;-63
2024/02/04 11:54:08;;;;;;;2.00;0.52;;;13.80;99.90;;;;;;5034448;28;20481;-64
2024/02/04 11:56:36;;;;;;;1.92;0.50;;;13.90;99.90;;;;;;5033487;28;20051;-63
2024/02/04 11:59:03;;;;;;;2.15;0.40;;;13.90;99.90;;;;;;5034136;28;20049;-64
2024/02/04 12:01:30;;;;;;;3.75;0.60;;;13.90;99.90;;;;;;5035131;28;20107;-64
2024/02/04 12:03:57;;;;;;;2.83;0.55;;;13.90;99.90;;;;;;5054236;28;20083;-64
2024/02/04 12:06:24;;;;;;;1.30;0.52;;;14.00;99.90;;;;;;5054525;28;20060;-64
2024/02/04 12:08:51;;;;;;;2.10;0.70;;;14.00;99.90;;;;;;5053893;28;20486;-64
2024/02/04 12:11:18;;;;;;;3.63;0.75;;;14.00;99.90;;;;;;5048563;28;20033;-64
2024/02/04 12:13:44;;;;;;;2.25;0.60;;;14.00;99.90;;;;;;5033794;28;20397;-64
2024/02/04 12:16:11;;;;;;;1.35;0.50;;;14.10;99.90;;;;;;5034305;28;20034;-64
2024/02/04 12:18:38;;;;;;;1.35;0.40;;;14.10;99.90;;;;;;5034313;28;20041;-64
2024/02/04 12:21:05;;;;;;;3.58;0.75;;;14.00;99.90;;;;;;5034132;28;20043;-64
2024/02/04 12:23:32;;;;;;;1.40;0.35;;;14.00;99.90;;;;;;5033486;28;20037;-64
2024/02/04 12:25:59;;;;;;;1.90;0.47;;;14.00;99.90;;;;;;5033946;28;20364;-64
2024/02/04 12:28:25;;;;;;;0.73;0.32;;;13.90;99.90;;;;;;5034127;28;20111;-65
2024/02/04 12:30:53;;;;;;;0.82;0.32;;;13.90;99.90;;;;;;5034183;28;20556;-64
2024/02/04 12:33:19;;;;;;;1.65;0.30;;;13.80;99.90;;;;;;5033964;28;20505;-64
2024/02/04 12:35:47;;;;;;;1.80;0.52;;;13.80;99.90;;;;;;5032595;28;20112;-64
2024/02/04 12:38:13;;;;;;;0.77;0.30;;;13.80;99.90;;;;;;5033899;28;20125;-63
2024/02/04 12:40:40;;;;;;;1.33;0.20;;;13.70;99.90;;;;;;5033871;28;20124;-64
2024/02/04 12:43:07;;;;;;;2.35;0.50;;;13.80;99.90;;;;;;5033468;28;20034;-64
2024/02/04 12:45:34;;;;;;;2.58;0.40;;;13.80;99.90;;;;;;5032505;28;20045;-64